Flight Track Log - Related Links

Times and Time Zones

All times are in EDT time to prevent confusion due to time zone crossing. See the BYA227 flight status page for this flight to view local times or setup timezone preferences in your user account.

Time Position Orientation Groundspeed Altitude Reporting Facility
EDT Latitude Longitude Course Direction KTS MPH feet Rate Location/Type
Sun 03:39:41 PM 35.8794 -112.3764 255° West 196 226 9,900  Level Los Angeles Center
Sun 03:40:43 PM 35.8633 -112.4403 253° West 197 227 10,700 618 Climbing Los Angeles Center
Sun 03:41:57 PM 35.8425 -112.5153 251° West 195 224 11,300 574 Climbing Los Angeles Center
Sun 03:42:59 PM 35.8258 -112.5942 255° West 199 229 12,000 672 Climbing Los Angeles Center
Sun 03:44:02 PM 35.8081 -112.6589 251° West 201 231 12,700 768 Climbing Los Angeles Center
Sun 03:45:00 PM 35.8428 -112.5992 255° West  Level FlightAware Approximate
Sun 03:45:04 PM 35.7950 -112.7236 256° West 198 228 13,600  Level Los Angeles Center
Sun 03:46:06 PM 35.7778 -112.7908 252° West 173 199 14,800 780 Climbing Los Angeles Center
Sun 03:47:07 PM 35.7658 -112.8353 252° West 171 197 15,200 480 Climbing Los Angeles Center
Sun 03:48:11 PM 35.7383 -112.9025 243° Southwest 183 211 15,800 288 Climbing Los Angeles Center
Sun 03:49:12 PM 35.7114 -112.9617 241° Southwest 197 227 15,800 49 Level Los Angeles Center
Sun 03:50:14 PM 35.6778 -113.0153 232° Southwest 199 229 15,900  Climbing Los Angeles Center
Sun 03:51:16 PM 35.6369 -113.0764 231° Southwest 193 222 15,800 -48 Descending Los Angeles Center
Sun 03:52:18 PM 35.6058 -113.1408 239° Southwest 211 243 15,800  Level Los Angeles Center
Sun 03:53:20 PM 35.5769 -113.2072 242° Southwest 219 252 15,800 -48 Level Los Angeles Center
Sun 03:54:23 PM 35.5622 -113.2758 255° West 222 255 15,700 -96 Descending Los Angeles Center
Sun 03:55:25 PM 35.5289 -113.3589 244° Southwest 226 260 15,600  Descending Los Angeles Center
Sun 03:56:27 PM 35.4936 -113.4228 236° Southwest 229 264 15,700 49 Climbing Los Angeles Center
Sun 03:57:28 PM 35.4814 -113.4867 257° West 238 274 15,700 -48 Level Los Angeles Center
Sun 03:58:31 PM 35.4642 -113.5808 257° West 239 275 15,600 96 Descending Los Angeles Center
Sun 03:59:33 PM 35.4492 -113.6561 256° West 232 267 15,900 242 Climbing Los Angeles Center
Sun 04:00:35 PM 35.4269 -113.7425 253° West 224 258 16,100 97 Climbing Los Angeles Center
Sun 04:01:37 PM 35.4111 -113.8167 255° West 226 260 16,100  Level Los Angeles Center
Sun 04:02:39 PM 35.3989 -113.8775 256° West 230 265 16,100 -48 Level Los Angeles Center
Sun 04:03:41 PM 35.3725 -113.9817 253° West 237 273 16,000 -48 Descending Los Angeles Center
Sun 04:04:43 PM 35.3572 -114.0642 257° West 245 282 16,000  Level Los Angeles Center
Sun 04:05:46 PM 35.3397 -114.1439 255° West 243 280 16,000 88 Level Los Angeles Center
Sun 04:07:00 PM 35.3186 -114.2417 255° West 246 283 16,200 122 Climbing Los Angeles Center
Sun 04:08:14 PM 35.3014 -114.3233 256° West 247 284 16,300  Climbing Los Angeles Center
Sun 04:09:17 PM 35.2769 -114.4206 253° West 248 285 16,200 -48 Descending Los Angeles Center
Sun 04:10:19 PM 35.2553 -114.5183 255° West 248 285 16,200 48 Level Los Angeles Center
Sun 04:11:21 PM 35.2372 -114.5989 255° West 247 284 16,300 48 Climbing Los Angeles Center
Sun 04:12:23 PM 35.2197 -114.6789 255° West 244 281 16,300 -48 Level Los Angeles Center
Sun 04:13:25 PM 35.2008 -114.7611 254° West 248 285 16,200 -48 Descending Los Angeles Center
Sun 04:14:27 PM 35.1836 -114.8456 256° West 254 292 16,200 48 Level Los Angeles Center
Sun 04:15:29 PM 35.1644 -114.9269 254° West 250 288 16,300 48 Climbing Los Angeles Center
Sun 04:16:31 PM 35.1408 -115.0236 253° West 248 285 16,300 -48 Level Los Angeles Center
Sun 04:17:33 PM 35.1217 -115.1050 254° West 250 288 16,200 -48 Descending Los Angeles Center
Sun 04:18:35 PM 35.1033 -115.1867 255° West 250 288 16,200 48 Level Los Angeles Center
Sun 04:19:38 PM 35.0861 -115.2608 254° West 249 287 16,300 48 Climbing Los Angeles Center
Sun 04:20:40 PM 35.0672 -115.3422 254° West 249 287 16,300  Level Los Angeles Center
Sun 04:21:42 PM 35.0442 -115.4386 254° West 248 285 16,300 -48 Level Los Angeles Center
Sun 04:22:44 PM 35.0256 -115.5206 255° West 250 288 16,200 -97 Descending Los Angeles Center
Sun 04:23:46 PM 35.0081 -115.6019 255° West 250 288 16,100 -48 Descending Los Angeles Center
Sun 04:24:48 PM 34.9881 -115.6831 253° West 248 285 16,100 -48 Level Los Angeles Center
Sun 04:25:50 PM 34.9731 -115.7467 254° West 247 284 16,000 -48 Descending Los Angeles Center
Sun 04:26:52 PM 34.9464 -115.8533 253° West 237 273 16,000  Level Los Angeles Center
Sun 04:27:54 PM 34.9278 -115.9283 253° West 234 269 16,000  Level Los Angeles Center
Sun 04:28:57 PM 34.9089 -116.0050 253° West 235 270 16,000 -48 Level Los Angeles Center
Sun 04:29:59 PM 34.8903 -116.0783 253° West 232 267 15,900 -242 Descending Los Angeles Center
Sun 04:31:01 PM 34.8719 -116.1528 253° West 231 266 15,500 -387 Descending Los Angeles Center
Sun 04:32:03 PM 34.8531 -116.2319 254° West 237 273 15,100 -435 Descending Los Angeles Center
Sun 04:33:05 PM 34.8294 -116.3286 253° West 246 283 14,600 -484 Descending Los Angeles Center
Sun 04:34:07 PM 34.8081 -116.4106 252° West 250 288 14,100 -290 Descending Los Angeles Center
Sun 04:35:09 PM 34.7822 -116.4842 247° West 244 281 14,000  Descending Los Angeles Center
Sun 04:36:11 PM 34.7394 -116.5386 226° Southwest 230 265 14,100  Climbing Los Angeles Center
Sun 04:37:13 PM 34.6978 -116.5908 226° Southwest 218 251 14,000  Descending Los Angeles Center
Sun 04:38:15 PM 34.6547 -116.6444 226° Southwest 220 253 14,100  Climbing Los Angeles Center
Sun 04:39:17 PM 34.5994 -116.7136 226° Southwest 237 273 14,000 -48 Descending Los Angeles Center
Sun 04:40:20 PM 34.5528 -116.7703 225° Southwest 239 275 14,000  Level Los Angeles Center
Sun 04:41:22 PM 34.5078 -116.8258 226° Southwest 233 268 14,000  Level Los Angeles Center
Sun 04:42:24 PM 34.4631 -116.8789 224° Southwest 226 260 14,000 -290 Level Los Angeles Center
Sun 04:43:26 PM 34.4189 -116.9322 225° Southwest 226 260 13,400 -581 Descending Los Angeles Center
Sun 04:44:28 PM 34.3700 -116.9892 224° Southwest 238 274 12,800 -629 Descending Los Angeles Center
Sun 04:45:30 PM 34.3128 -117.0569 224° Southwest 239 275 12,100 -726 Descending Los Angeles Center
Sun 04:46:32 PM 34.2614 -117.1175 224° Southwest 255 293 11,300 -774 Descending Los Angeles Center
Sun 04:47:34 PM 34.2131 -117.1756 225° Southwest 254 292 10,500 -677 Descending Los Angeles Center
Sun 04:48:36 PM 34.1639 -117.2369 226° Southwest 255 293 9,900 -726 Descending Los Angeles Center
Sun 04:49:38 PM 34.1250 -117.2875 227° Southwest 254 292 9,000 -1,488 Descending Los Angeles Center
Sun 04:50:41 PM 34.0539 -117.3689 223° Southwest 250 288 6,800 -1,755 Descending Los Angeles Center
Sun 04:51:24 PM 34.0167 -117.4167 227° Southwest 239 275 5,900 -462 Descending Southern California TRACON
Sun 04:52:25 PM 33.9833 -117.4667 231° Southwest 217 250 6,000 -149 Climbing Southern California TRACON
Sun 04:53:25 PM 33.9333 -117.5167 220° Southwest 233 268 5,600 -333 Descending Southern California TRACON
Sun 04:55:25 PM 33.9500 -117.6667 278° West 228 262 5,000 -298 Descending Southern California TRACON
Sun 04:56:26 PM 33.9500 -117.7500 270° West 226 260 4,700 -545 Descending Southern California TRACON
Sun 04:57:26 PM 33.9500 -117.8167 270° West 234 269 3,900 -843 Descending Southern California TRACON
Sun 04:58:27 PM 33.9500 -117.9000 270° West 223 257 3,000 -446 Descending Southern California TRACON
Sun 04:59:27 PM 33.9333 -117.9667 253° West 216 249 3,000  Level Southern California TRACON
Sun 05:00:27 PM 33.9333 -118.0333 270° West 220 253 3,000 -250 Level Southern California TRACON
Sun 05:01:27 PM 33.9333 -118.1167 270° West 219 252 2,500 -661 Descending Southern California TRACON
Sun 05:02:16 PM 33.9297 -118.1553 264° West 217 250 1,800 -486 Descending Los Angeles Center
Sun 05:03:18 PM 33.9261 -118.2325 267° West 204 235 1,600 -387 Descending Los Angeles Center
Sun 05:04:20 PM 33.9250 -118.2792 268° West 165 190 1,000 3,355 Descending Los Angeles Center
Sun 05:06:24 PM 33.9239 -118.3389 269° West 107 123 12,000 5,323 Climbing Los Angeles Center

Login

Don't have an account? Register now (free) for customized features, flight alerts, and more!